sensor_id;sensor_type;location;lat;lon;timestamp;pressure;altitude;pressure_sealevel;temperature;humidity
15558;BME280;7880;50.110;9.372;2022-11-15T05:00:32;6.771258368488634;;;6.687;100.0
15558;BME280;7880;50.110;9.372;2022-11-15T05:05:38;6.746047944598831;;;6.687;100.0
15558;BME280;7880;50.110;9.372;2022-11-15T05:10:40;6.665374637045898;;;6.625;100.0
15558;BME280;7880;50.110;9.372;2022-11-15T05:15:43;6.640164243715117;;;6.625;100.0
15558;BME280;7880;50.110;9.372;2022-11-15T05:20:48;6.660332557797664;;;6.562;100.0
15558;BME280;7880;50.110;9.372;2022-11-15T05:25:52;6.544364815414883;;;6.5;100.0
15558;BME280;7880;50.110;9.372;2022-11-15T05:31:03;6.468733762024203;;;6.5;100.0
15558;BME280;7880;50.110;9.372;2022-11-15T05:36:06;6.398144837940345;;;6.312;100.0
15558;BME280;7880;50.110;9.372;2022-11-15T05:41:05;6.362850397289731;;;6.25;100.0
15558;BME280;7880;50.110;9.372;2022-11-15T05:46:09;6.4132710311561825;;;6.312;100.0
15558;BME280;7880;50.110;9.372;2022-11-15T05:51:17;6.5241965281078595;;;6.437;100.0
15558;BME280;7880;50.110;9.372;2022-11-15T05:56:17;6.56453310737852;;;6.5;100.0
15558;BME280;7880;50.110;9.372;2022-11-15T06:01:25;6.519154457008699;;;6.562;100.0
15558;BME280;7880;50.110;9.372;2022-11-15T06:06:27;6.514112386200577;;;6.5;100.0
15558;BME280;7880;50.110;9.372;2022-11-15T06:11:33;6.478817898692796;;;6.437;100.0
15558;BME280;7880;50.110;9.372;2022-11-15T06:16:35;6.408228966459864;;;6.437;100.0
15558;BME280;7880;50.110;9.372;2022-11-15T06:21:40;6.357808335503796;;;6.312;100.0
15558;BME280;7880;50.110;9.372;2022-11-15T06:26:49;6.448565492179478;;;6.375;100.0
15558;BME280;7880;50.110;9.372;2022-11-15T06:31:48;6.388060710584978;;;6.375;100.0
15558;BME280;7880;50.110;9.372;2022-11-15T06:36:51;6.337640091270441;;;6.312;100.0
15558;BME280;7880;50.110;9.372;2022-11-15T06:41:55;6.317471851693699;;;6.375;100.0
15558;BME280;7880;50.110;9.372;2022-11-15T06:47:00;6.267051273124525;;;6.312;100.0
15558;BME280;7880;50.110;9.372;2022-11-15T06:52:04;6.3275559708999936;;;6.312;100.0
15558;BME280;7880;50.110;9.372;2022-11-15T06:57:20;5.873771759128431;;;5.937;100.0
15558;BME280;7880;50.110;9.372;2022-11-15T07:02:12;5.9443602594605185;;;5.937;100.0
15558;BME280;7880;50.110;9.372;2022-11-15T07:07:17;6.090579477325082;;;6.062;100.0
15558;BME280;7880;50.110;9.372;2022-11-15T07:12:23;6.0653692498861345;;;6.062;100.0
15558;BME280;7880;50.110;9.372;2022-11-15T07:17:24;5.9443602594605185;;;5.875;100.0
15558;BME280;7880;50.110;9.372;2022-11-15T07:22:27;6.1359579050506;;;6.125;100.0
15558;BME280;7880;50.110;9.372;2022-11-15T07:27:31;6.045201073173667;;;6.062;100.0
15558;BME280;7880;50.110;9.372;2022-11-15T07:32:34;6.019990858831443;;;5.937;100.0
15558;BME280;7880;50.110;9.372;2022-11-15T07:37:40;6.045201073173667;;;5.937;100.0
15558;BME280;7880;50.110;9.372;2022-11-15T07:43:00;6.23679893995286;;;6.187;100.0
15558;BME280;7880;50.110;9.372;2022-11-15T07:47:51;6.393102774117142;;;6.375;100.0
15558;BME280;7880;50.110;9.372;2022-11-15T07:52:56;6.478817898692796;;;6.562;100.0
15558;BME280;7880;50.110;9.372;2022-11-15T07:58:01;6.509070315683493;;;6.625;100.0
15558;BME280;7880;50.110;9.372;2022-11-15T08:03:08;6.625038011209108;;;6.687;100.0
15558;BME280;7880;50.110;9.372;2022-11-15T08:08:08;6.675458796415478;;;6.75;100.0
15558;BME280;7880;50.110;9.372;2022-11-15T08:13:12;6.77630045413971;;;6.875;100.0
15558;BME280;7880;50.110;9.372;2022-11-15T08:18:16;6.8922685044410175;;;7.0;100.0
15558;BME280;7880;50.110;9.372;2022-11-15T08:23:20;7.003194609662751;;;7.125;100.0
15558;BME280;7880;50.110;9.372;2022-11-15T08:28:26;7.083868229208747;;;7.187;100.0
15558;BME280;7880;50.110;9.372;2022-11-15T08:33:30;7.05361561314785;;;7.25;100.0
15558;BME280;7880;50.110;9.372;2022-11-15T08:38:32;7.098994541168213;;;7.25;100.0
15558;BME280;7880;50.110;9.372;2022-11-15T08:43:36;7.154457707429538;;;7.25;100.0
15558;BME280;7880;50.110;9.372;2022-11-15T08:48:40;7.446900439175079;;;7.5;100.0
15558;BME280;7880;50.110;9.372;2022-11-15T08:53:39;7.835144888819196;;;7.875;100.0
15558;BME280;7880;50.110;9.372;2022-11-15T08:58:43;7.996493739099241;;;8.125;100.0
15558;BME280;7880;50.110;9.372;2022-11-15T09:03:54;8.056999634788372;;;8.25;100.0
15558;BME280;7880;50.110;9.372;2022-11-15T09:08:51;8.031788839824731;;;8.25;100.0
15558;BME280;7880;50.110;9.372;2022-11-15T09:13:56;8.12254773574532;;;8.312;100.0
15558;BME280;7880;50.110;9.372;2022-11-15T09:18:58;8.258686256431975;;;8.437;100.0
15558;BME280;7880;50.110;9.372;2022-11-15T09:24:01;8.470457710325718;;;8.625;100.0
15558;BME280;7880;50.110;9.372;2022-11-15T09:29:09;8.626765541319037;;;8.812;100.0
15558;BME280;7880;50.110;9.372;2022-11-15T09:34:07;8.883917742804623;;;9.0;100.0
15558;BME280;7880;50.110;9.372;2022-11-15T09:39:11;9.151155146450037;;;9.312;100.0
15558;BME280;7880;50.110;9.372;2022-11-15T09:44:28;9.095690712425858;;;9.375;100.0
15558;BME280;7880;50.110;9.372;2022-11-15T09:49:32;9.221746295230696;;;9.437;100.0
15558;BME280;7880;50.110;9.372;2022-11-15T09:54:28;9.206619615689851;;;9.437;100.0
15558;BME280;7880;50.110;9.372;2022-11-15T09:59:40;9.075521836057305;;;9.312;100.0
15558;BME280;7880;50.110;9.372;2022-11-15T10:04:36;9.181408488942543;;;9.375;100.0
15558;BME280;7880;50.110;9.372;2022-11-15T10:09:38;9.352844294306124;;;9.5;100.0
15558;BME280;7880;50.110;9.372;2022-11-15T10:14:38;9.458731283340603;;;9.625;100.0
15558;BME280;7880;50.110;9.372;2022-11-15T10:19:51;9.539407170657068;;;9.687;100.0
15558;BME280;7880;50.110;9.372;2022-11-15T10:24:46;9.589829638064838;;;9.812;100.0
15558;BME280;7880;50.110;9.372;2022-11-15T10:29:56;9.872195993387141;;;10.0;100.0
15558;BME280;7880;50.110;9.372;2022-11-15T10:34:54;10.028506332548568;;;10.187;100.0
15558;BME280;7880;50.110;9.372;2022-11-15T10:40:06;10.078929082263494;;;10.25;100.0
15558;BME280;7880;50.110;9.372;2022-11-15T10:45:23;10.12935186108225;;;10.375;100.0
15558;BME280;7880;50.110;9.372;2022-11-15T10:50:11;10.179774669004837;;;10.375;100.0
15558;BME280;7880;50.110;9.372;2022-11-15T10:55:23;10.250366648990894;;;10.437;100.0
15558;BME280;7880;50.110;9.372;2022-11-15T11:00:31;10.502481328888098;;;10.687;100.0
15558;BME280;7880;50.110;9.372;2022-11-15T11:05:27;10.457100632810034;;;10.687;100.0
15558;BME280;7880;50.110;9.372;2022-11-15T11:10:22;10.588200485799462;;;10.75;100.0
15558;BME280;7880;50.110;9.372;2022-11-15T11:15:27;10.588200485799462;;;10.812;100.0
15558;BME280;7880;50.110;9.372;2022-11-15T11:20:36;10.532735139370198;;;10.812;100.0
15558;BME280;7880;50.110;9.372;2022-11-15T11:25:44;10.52265053471201;;;10.75;100.0
15558;BME280;7880;50.110;9.372;2022-11-15T11:30:55;10.68904666043818;;;10.937;100.0
15558;BME280;7880;50.110;9.372;2022-11-15T11:35:50;10.72434284906485;;;10.937;100.0
15558;BME280;7880;50.110;9.372;2022-11-15T11:40:58;10.72434284906485;;;10.937;100.0
15558;BME280;7880;50.110;9.372;2022-11-15T11:46:03;10.653750486072386;;;10.875;100.0
15558;BME280;7880;50.110;9.372;2022-11-15T11:51:05;10.64366586744436;;;10.875;100.0
15558;BME280;7880;50.110;9.372;2022-11-15T11:55:57;10.663835105864564;;;10.875;100.0
15558;BME280;7880;50.110;9.372;2022-11-15T12:01:12;10.613412018545205;;;10.812;100.0
15558;BME280;7880;50.110;9.372;2022-11-15T12:06:18;10.618454325967468;;;10.75;100.0
15558;BME280;7880;50.110;9.372;2022-11-15T12:11:14;10.638623558566906;;;10.812;100.0
15558;BME280;7880;50.110;9.372;2022-11-15T12:16:20;10.694088972226018;;;10.875;100.0
15558;BME280;7880;50.110;9.372;2022-11-15T12:21:24;10.799977587000466;;;10.937;100.0
15558;BME280;7880;50.110;9.372;2022-11-15T12:26:31;10.840316140674986;;;11.0;100.0
15558;BME280;7880;50.110;9.372;2022-11-15T12:31:36;10.850400782003998;;;11.0;100.0
15558;BME280;7880;50.110;9.372;2022-11-15T12:36:36;10.880654712975957;;;11.062;100.0
15558;BME280;7880;50.110;9.372;2022-11-15T12:41:37;10.855443103105063;;;11.062;100.0
15558;BME280;7880;50.110;9.372;2022-11-15T12:47:44;10.880654712975957;;;11.0;100.0
15558;BME280;7880;50.110;9.372;2022-11-15T12:52:22;10.88569703582325;;;11.0;100.0
15558;BME280;7880;50.110;9.372;2022-11-15T12:57:35;10.910908654425294;;;11.062;100.0
15558;BME280;7880;50.110;9.372;2022-11-15T13:02:32;10.956289586244385;;;11.125;100.0
15558;BME280;7880;50.110;9.372;2022-11-15T13:07:57;11.087390188366408;;;11.187;100.0
15558;BME280;7880;50.110;9.372;2022-11-15T13:12:54;11.203363961935974;;;11.312;100.0
15558;BME280;7880;50.110;9.372;2022-11-15T13:17:45;11.178152258932823;;;11.312;100.0
15558;BME280;7880;50.110;9.372;2022-11-15T13:23:08;11.097474858217174;;;11.312;100.0
15558;BME280;7880;50.110;9.372;2022-11-15T13:27:51;11.082347853877582;;;11.25;100.0
15558;BME280;7880;50.110;9.372;2022-11-15T13:33:08;11.00671287146979;;;11.187;100.0
15558;BME280;7880;50.110;9.372;2022-11-15T13:38:04;10.926035629078978;;;11.125;100.0
15558;BME280;7880;50.110;9.372;2022-11-15T13:43:31;10.926035629078978;;;11.062;100.0
15558;BME280;7880;50.110;9.372;2022-11-15T13:48:12;10.865527746180305;;;11.0;100.0
15558;BME280;7880;50.110;9.372;2022-11-15T13:53:20;10.714258222287754;;;10.875;100.0
15558;BME280;7880;50.110;9.372;2022-11-15T13:57:54;10.593242791766533;;;10.687;100.0
15558;BME280;7880;50.110;9.372;2022-11-15T14:02:56;10.658792795822956;;;10.687;100.0
15558;BME280;7880;50.110;9.372;2022-11-15T14:08:02;10.562988960329676;;;10.625;100.0
15558;BME280;7880;50.110;9.372;2022-11-15T14:13:25;10.416762256086804;;;10.5;100.0
15558;BME280;7880;50.110;9.372;2022-11-15T14:18:42;10.411719960306073;;;10.437;100.0
15558;BME280;7880;50.110;9.372;2022-11-15T14:23:25;10.46214293121011;;;10.5;100.0
15558;BME280;7880;50.110;9.372;2022-11-15T14:28:31;10.376423897990026;;;10.437;100.0
15558;BME280;7880;50.110;9.372;2022-11-15T14:33:32;10.376423897990026;;;10.437;100.0
15558;BME280;7880;50.110;9.372;2022-11-15T14:38:35;10.280620372161502;;;10.312;100.0
15558;BME280;7880;50.110;9.372;2022-11-15T14:43:38;10.225155221018941;;;10.25;100.0
15558;BME280;7880;50.110;9.372;2022-11-15T14:48:41;10.230197506031255;;;10.25;100.0
15558;BME280;7880;50.110;9.372;2022-11-15T14:53:46;10.250366648990894;;;10.312;100.0
15558;BME280;7880;50.110;9.372;2022-11-15T14:58:52;10.265493509266525;;;10.312;100.0
15558;BME280;7880;50.110;9.372;2022-11-15T15:03:58;10.099098190298538;;;10.187;100.0
15558;BME280;7880;50.110;9.372;2022-11-15T15:09:02;10.144478700403123;;;10.187;100.0
15558;BME280;7880;50.110;9.372;2022-11-15T15:14:03;10.169690105092013;;;10.187;100.0
15558;BME280;7880;50.110;9.372;2022-11-15T15:19:08;10.159605542343343;;;10.187;100.0
15558;BME280;7880;50.110;9.372;2022-11-15T15:24:17;10.119267302990192;;;10.187;100.0
15558;BME280;7880;50.110;9.372;2022-11-15T15:29:17;10.033548606210388;;;10.062;100.0
15558;BME280;7880;50.110;9.372;2022-11-15T15:34:27;10.119267302990192;;;10.125;100.0
15558;BME280;7880;50.110;9.372;2022-11-15T15:39:26;10.00833724081167;;;10.062;100.0
15558;BME280;7880;50.110;9.372;2022-11-15T15:44:31;9.967999071307712;;;10.0;100.0
15558;BME280;7880;50.110;9.372;2022-11-15T15:49:35;9.902449585590512;;;9.937;100.0
15558;BME280;7880;50.110;9.372;2022-11-15T15:54:40;9.887322788179153;;;9.875;100.0
15558;BME280;7880;50.110;9.372;2022-11-15T15:59:44;9.867153729038545;;;9.812;100.0
15558;BME280;7880;50.110;9.372;2022-11-15T16:04:47;9.836900149058783;;;9.812;100.0
15558;BME280;7880;50.110;9.372;2022-11-15T16:10:18;10.729385162889958;;;10.562;100.0
15558;BME280;7880;50.110;9.372;2022-11-15T16:15:00;9.96295680142939;;;10.125;100.0
15558;BME280;7880;50.110;9.372;2022-11-15T16:20:21;9.725970445439453;;;9.812;100.0
15558;BME280;7880;50.110;9.372;2022-11-15T16:25:15;9.67050564645324;;;9.687;100.0
15558;BME280;7880;50.110;9.372;2022-11-15T16:30:15;9.61504088268266;;;9.562;100.0
15558;BME280;7880;50.110;9.372;2022-11-15T16:35:23;9.61504088268266;;;9.562;100.0
15558;BME280;7880;50.110;9.372;2022-11-15T16:40:28;9.569660647609272;;;9.562;100.0
15558;BME280;7880;50.110;9.372;2022-11-15T16:45:26;9.519238191843034;;;9.562;100.0
15558;BME280;7880;50.110;9.372;2022-11-15T16:50:43;9.418393367622048;;;9.375;100.0
15558;BME280;7880;50.110;9.372;2022-11-15T16:55:37;9.403266654029721;;;9.375;100.0
15558;BME280;7880;50.110;9.372;2022-11-15T17:00:42;9.292337501054863;;;9.25;100.0
15558;BME280;7880;50.110;9.372;2022-11-15T17:05:44;9.236872977390885;;;9.187;100.0
15558;BME280;7880;50.110;9.372;2022-11-15T17:10:47;9.29737973222509;;;9.25;100.0
15558;BME280;7880;50.110;9.372;2022-11-15T17:16:02;9.226788522326387;;;9.25;100.0
15558;BME280;7880;50.110;9.372;2022-11-15T17:21:03;9.181408488942543;;;9.125;100.0
15558;BME280;7880;50.110;9.372;2022-11-15T17:26:00;9.1360284791328;;;9.062;100.0
15558;BME280;7880;50.110;9.372;2022-11-15T17:31:06;9.161239592783385;;;9.125;100.0
15558;BME280;7880;50.110;9.372;2022-11-15T17:36:11;9.216704068426044;;;9.187;100.0
15558;BME280;7880;50.110;9.372;2022-11-15T17:41:14;9.14611292371992;;;9.125;100.0
15558;BME280;7880;50.110;9.372;2022-11-15T17:46:32;9.110817372758174;;;9.062;100.0
15558;BME280;7880;50.110;9.372;2022-11-15T17:51:25;9.105775152356363;;;9.187;100.0
15558;BME280;7880;50.110;9.372;2022-11-15T17:56:28;9.050310747144977;;;9.0;100.0
15558;BME280;7880;50.110;9.372;2022-11-15T18:01:33;8.899044366466114;;;8.875;100.0
15558;BME280;7880;50.110;9.372;2022-11-15T18:06:41;8.97971973689855;;;8.937;100.0
15558;BME280;7880;50.110;9.372;2022-11-15T18:11:51;8.924255411722697;;;8.875;100.0
15558;BME280;7880;50.110;9.372;2022-11-15T18:16:49;8.924255411722697;;;8.875;100.0
15558;BME280;7880;50.110;9.372;2022-11-15T18:21:56;8.858706709189573;;;8.875;100.0
15558;BME280;7880;50.110;9.372;2022-11-15T18:26:57;8.843580092513003;;;8.812;100.0
15558;BME280;7880;50.110;9.372;2022-11-15T18:32:11;8.863748915330508;;;8.812;100.0
15558;BME280;7880;50.110;9.372;2022-11-15T18:37:06;8.899044366466114;;;8.875;100.0
15558;BME280;7880;50.110;9.372;2022-11-15T18:42:10;8.828453478455776;;;8.812;100.0
15558;BME280;7880;50.110;9.372;2022-11-15T18:47:19;8.843580092513003;;;8.812;100.0
15558;BME280;7880;50.110;9.372;2022-11-15T18:52:18;8.798200258199358;;;8.812;100.0
15558;BME280;7880;50.110;9.372;2022-11-15T18:57:21;8.994846377149225;;;9.0;100.0
15558;BME280;7880;50.110;9.372;2022-11-15T19:02:07;8.883917742804623;;;8.875;100.0
15558;BME280;7880;50.110;9.372;2022-11-15T19:07:15;8.939382042369107;;;8.937;100.0
15558;BME280;7880;50.110;9.372;2022-11-15T19:12:13;8.883917742804623;;;8.875;100.0
15558;BME280;7880;50.110;9.372;2022-11-15T19:17:31;8.91417099274695;;;8.937;100.0
15558;BME280;7880;50.110;9.372;2022-11-15T19:22:23;8.919213202089304;;;8.937;100.0
15558;BME280;7880;50.110;9.372;2022-11-15T19:27:31;8.899044366466114;;;8.937;100.0
15558;BME280;7880;50.110;9.372;2022-11-15T19:32:35;8.974677524063736;;;9.0;100.0
15558;BME280;7880;50.110;9.372;2022-11-15T19:37:36;8.909128783695632;;;8.937;100.0
15558;BME280;7880;50.110;9.372;2022-11-15T19:42:42;8.899044366466114;;;8.875;100.0
15558;BME280;7880;50.110;9.372;2022-11-15T19:48:01;8.949466464255238;;;9.0;100.0
15558;BME280;7880;50.110;9.372;2022-11-15T19:53:05;8.894002158287913;;;8.937;100.0
15558;BME280;7880;50.110;9.372;2022-11-15T19:58:11;8.934339831862598;;;9.0;100.0
15558;BME280;7880;50.110;9.372;2022-11-15T20:03:15;8.994846377149225;;;9.0;100.0
15558;BME280;7880;50.110;9.372;2022-11-15T20:08:19;8.959550887305522;;;9.0;100.0
15558;BME280;7880;50.110;9.372;2022-11-15T20:13:24;8.95450867563486;;;9.062;100.0
15558;BME280;7880;50.110;9.372;2022-11-15T20:18:30;8.964593099267223;;;9.0;100.0
15558;BME280;7880;50.110;9.372;2022-11-15T20:23:32;8.989804163441296;;;9.062;100.0
15558;BME280;7880;50.110;9.372;2022-11-15T20:28:38;8.97971973689855;;;9.062;100.0
15558;BME280;7880;50.110;9.372;2022-11-15T20:33:40;8.97971973689855;;;9.062;100.0
15558;BME280;7880;50.110;9.372;2022-11-15T20:38:48;9.045268530235626;;;9.125;100.0
15558;BME280;7880;50.110;9.372;2022-11-15T20:43:51;9.055352964345365;;;9.125;100.0
15558;BME280;7880;50.110;9.372;2022-11-15T20:49:14;9.050310747144977;;;9.187;100.0
15558;BME280;7880;50.110;9.372;2022-11-15T20:54:03;9.080564054712886;;;9.187;100.0
15558;BME280;7880;50.110;9.372;2022-11-15T20:59:06;9.100732932245592;;;9.187;100.0
15558;BME280;7880;50.110;9.372;2022-11-15T21:04:12;9.070479617692763;;;9.187;100.0
15558;BME280;7880;50.110;9.372;2022-11-15T21:16:19;9.171324040280888;;;9.25;100.0
15558;BME280;7880;50.110;9.372;2022-11-15T21:21:28;9.125944035709836;;;9.25;100.0
15558;BME280;7880;50.110;9.372;2022-11-15T21:26:29;9.115859593451024;;;9.25;100.0
15558;BME280;7880;50.110;9.372;2022-11-15T21:31:37;9.125944035709836;;;9.25;100.0
15558;BME280;7880;50.110;9.372;2022-11-15T21:36:40;9.12090181443491;;;9.25;100.0
15558;BME280;7880;50.110;9.372;2022-11-15T21:41:47;9.12090181443491;;;9.25;100.0
15558;BME280;7880;50.110;9.372;2022-11-15T21:46:52;9.100732932245592;;;9.187;100.0
15558;BME280;7880;50.110;9.372;2022-11-15T21:51:57;9.020057450054447;;;9.125;100.0
15558;BME280;7880;50.110;9.372;2022-11-15T21:57:02;9.100732932245592;;;9.125;100.0
15558;BME280;7880;50.110;9.372;2022-11-15T22:02:15;9.070479617692763;;;9.187;100.0
15558;BME280;7880;50.110;9.372;2022-11-15T22:12:29;9.045268530235626;;;9.125;100.0
15558;BME280;7880;50.110;9.372;2022-11-15T22:18:07;8.994846377149225;;;9.062;100.0
15558;BME280;7880;50.110;9.372;2022-11-15T22:22:58;9.030141881253803;;;9.062;100.0
15558;BME280;7880;50.110;9.372;2022-11-15T22:28:01;8.929297621647128;;;9.0;100.0
15558;BME280;7880;50.110;9.372;2022-11-15T22:33:07;8.934339831862598;;;8.937;100.0
15558;BME280;7880;50.110;9.372;2022-11-15T22:38:14;8.878875535499537;;;8.937;100.0
15558;BME280;7880;50.110;9.372;2022-11-15T22:43:19;8.929297621647128;;;9.0;100.0
15558;BME280;7880;50.110;9.372;2022-11-15T22:48:24;8.88895995040075;;;8.937;100.0
15558;BME280;7880;50.110;9.372;2022-11-15T22:53:24;8.899044366466114;;;8.937;100.0
15558;BME280;7880;50.110;9.372;2022-11-15T22:58:34;8.863748915330508;;;8.875;100.0
15558;BME280;7880;50.110;9.372;2022-11-15T23:03:33;8.853664503339678;;;8.875;100.0
15558;BME280;7880;50.110;9.372;2022-11-15T23:08:39;8.83349568285048;;;8.812;100.0
15558;BME280;7880;50.110;9.372;2022-11-15T23:13:41;8.762904847809114;;;8.75;100.0
15558;BME280;7880;50.110;9.372;2022-11-15T23:18:45;8.747778247721726;;;8.75;100.0
15558;BME280;7880;50.110;9.372;2022-11-15T23:23:49;8.732651650253683;;;8.75;100.0
15558;BME280;7880;50.110;9.372;2022-11-15T23:28:54;8.687271873565624;;;8.687;100.0
15558;BME280;7880;50.110;9.372;2022-11-15T23:33:59;8.662060896703043;;;8.625;100.0
15558;BME280;7880;50.110;9.372;2022-11-15T23:39:04;8.677187481947476;;;8.687;100.0
15558;BME280;7880;50.110;9.372;2022-11-15T23:44:08;8.606596773216733;;;8.625;100.0
15558;BME280;7880;50.110;9.372;2022-11-15T23:49:12;8.581385819637216;;;8.562;100.0
15558;BME280;7880;50.110;9.372;2022-11-15T23:54:15;8.576343629794428;;;8.562;100.0
15558;BME280;7880;50.110;9.372;2022-11-15T23:59:19;8.561217062012293;;;8.562;100.0
